Portada
METAR-TAF:

METAR-TAF

Aeropuertos :

Base Aérea de Armilla

Granada, España

latitud: 37-08N, longitud: 003-38-08W, altitud: 700 m

Observación

El informe se hizo hace 10 horas y 48 minutos, a las 17:00 UTC
Viento 14 kt del sur, variando entre oeste y suroeste
Temperatura 18°C
Humedad 64%
Presión 1019 hPa
Visibilidad 10 km o más
sin nubes por debajo de 1500 m y sin presencia de cumulonimbus.

METAR: LEGA 191700Z 19014KT 270V230 CAVOK 18/11 Q1019

Hora: 05:48 (03:48 UTC)

Pronóstico

El informe se hizo hace 13 horas y 48 minutos, a las 14:00 UTC
Pronóstico válido del 19 a las 15 UTC al 19 a las 24 UTC
Viento 15 kt del sur
Visibilidad 10 km o más
sin nubes por debajo de 1500 m y sin presencia de cumulonimbus.
Probabilidad 30% :
Temporalmente
del 19 a las 15 UTC al 19 a las 20 UTC
Viento 15 kt del sur con ráfagas de 25 kt

TAF: LEGA 191400Z 1915/1924 19015KT CAVOK PROB30 TEMPO 1915/1920 19015G25KT

Observaciones y pronósticos meteorológicos de más de 4000 aeropuertos (mensajes METAR y TAF).

Los puntos amarillos y rojos representan las estaciones disponibles.

Ponga el ratón en el punto deseado para ver el nombre de la estación.

Haga clic para ver las observaciones y los pronósticos meteorológicos.

Para cambiar el mapa : haga clic en los botones verdes con una cruz de color negro para hacer un zoom, en el botón verde con un guión para alejar o en las flechas verdes para mapas adyacentes.


METAR-TAF: